sensor_id;sensor_type;location;lat;lon;timestamp;P1;durP1;ratioP1;P2;durP2;ratioP2
77417;SDS011;66490;51.484;0.026;2023-01-04T00:00:48;13.63;;;3.60;;
77417;SDS011;66490;51.484;0.026;2023-01-04T00:03:14;10.60;;;2.17;;
77417;SDS011;66490;51.484;0.026;2023-01-04T00:05:40;13.48;;;2.85;;
77417;SDS011;66490;51.484;0.026;2023-01-04T00:08:05;15.33;;;2.40;;
77417;SDS011;66490;51.484;0.026;2023-01-04T00:10:31;15.13;;;2.67;;
77417;SDS011;66490;51.484;0.026;2023-01-04T00:12:57;19.33;;;3.40;;
77417;SDS011;66490;51.484;0.026;2023-01-04T00:15:23;12.05;;;2.20;;
77417;SDS011;66490;51.484;0.026;2023-01-04T00:17:49;11.40;;;1.88;;
77417;SDS011;66490;51.484;0.026;2023-01-04T00:20:15;9.40;;;2.10;;
77417;SDS011;66490;51.484;0.026;2023-01-04T00:22:42;15.75;;;2.08;;
77417;SDS011;66490;51.484;0.026;2023-01-04T00:25:08;12.63;;;2.37;;
77417;SDS011;66490;51.484;0.026;2023-01-04T00:27:33;15.13;;;1.77;;
77417;SDS011;66490;51.484;0.026;2023-01-04T00:29:59;11.50;;;1.83;;
77417;SDS011;66490;51.484;0.026;2023-01-04T00:32:25;12.60;;;1.98;;
77417;SDS011;66490;51.484;0.026;2023-01-04T00:34:51;12.00;;;3.25;;
77417;SDS011;66490;51.484;0.026;2023-01-04T00:37:16;12.10;;;1.97;;
77417;SDS011;66490;51.484;0.026;2023-01-04T00:39:42;12.73;;;2.70;;
77417;SDS011;66490;51.484;0.026;2023-01-04T00:42:08;12.73;;;1.55;;
77417;SDS011;66490;51.484;0.026;2023-01-04T00:44:33;12.47;;;1.90;;
77417;SDS011;66490;51.484;0.026;2023-01-04T00:46:59;11.98;;;1.42;;
77417;SDS011;66490;51.484;0.026;2023-01-04T00:49:29;13.02;;;2.08;;
77417;SDS011;66490;51.484;0.026;2023-01-04T00:51:55;8.75;;;1.83;;
77417;SDS011;66490;51.484;0.026;2023-01-04T00:54:21;11.77;;;1.30;;
77417;SDS011;66490;51.484;0.026;2023-01-04T00:56:47;8.93;;;1.92;;
77417;SDS011;66490;51.484;0.026;2023-01-04T00:59:15;15.88;;;2.00;;
77417;SDS011;66490;51.484;0.026;2023-01-04T01:01:42;11.30;;;1.83;;
77417;SDS011;66490;51.484;0.026;2023-01-04T01:04:09;5.70;;;1.50;;
77417;SDS011;66490;51.484;0.026;2023-01-04T01:06:37;6.75;;;1.77;;
77417;SDS011;66490;51.484;0.026;2023-01-04T01:09:03;9.55;;;1.58;;
77417;SDS011;66490;51.484;0.026;2023-01-04T01:11:29;7.97;;;1.77;;
77417;SDS011;66490;51.484;0.026;2023-01-04T01:13:56;11.27;;;2.33;;
77417;SDS011;66490;51.484;0.026;2023-01-04T01:16:22;10.25;;;1.60;;
77417;SDS011;66490;51.484;0.026;2023-01-04T01:18:49;8.38;;;1.02;;
77417;SDS011;66490;51.484;0.026;2023-01-04T01:21:16;8.83;;;1.70;;
77417;SDS011;66490;51.484;0.026;2023-01-04T01:23:43;7.63;;;1.60;;
77417;SDS011;66490;51.484;0.026;2023-01-04T01:26:11;12.68;;;1.60;;
77417;SDS011;66490;51.484;0.026;2023-01-04T01:28:39;12.40;;;2.05;;
77417;SDS011;66490;51.484;0.026;2023-01-04T01:31:08;12.20;;;2.23;;
77417;SDS011;66490;51.484;0.026;2023-01-04T01:33:37;8.43;;;1.95;;
77417;SDS011;66490;51.484;0.026;2023-01-04T01:36:04;11.63;;;1.98;;
77417;SDS011;66490;51.484;0.026;2023-01-04T01:38:31;9.43;;;2.63;;
77417;SDS011;66490;51.484;0.026;2023-01-04T01:40:57;9.77;;;2.23;;
77417;SDS011;66490;51.484;0.026;2023-01-04T01:43:45;14.13;;;1.65;;
77417;SDS011;66490;51.484;0.026;2023-01-04T01:46:23;11.63;;;2.20;;
77417;SDS011;66490;51.484;0.026;2023-01-04T01:48:57;12.77;;;2.92;;
77417;SDS011;66490;51.484;0.026;2023-01-04T01:51:26;11.70;;;3.03;;
77417;SDS011;66490;51.484;0.026;2023-01-04T01:53:57;10.57;;;2.13;;
77417;SDS011;66490;51.484;0.026;2023-01-04T01:56:28;15.90;;;1.58;;
77417;SDS011;66490;51.484;0.026;2023-01-04T01:58:57;10.88;;;1.92;;
77417;SDS011;66490;51.484;0.026;2023-01-04T02:01:25;9.93;;;2.25;;
77417;SDS011;66490;51.484;0.026;2023-01-04T02:03:51;13.95;;;2.55;;
77417;SDS011;66490;51.484;0.026;2023-01-04T02:06:20;13.30;;;2.80;;
77417;SDS011;66490;51.484;0.026;2023-01-04T02:08:50;16.48;;;2.55;;
77417;SDS011;66490;51.484;0.026;2023-01-04T02:11:15;16.52;;;3.72;;
77417;SDS011;66490;51.484;0.026;2023-01-04T02:13:41;16.40;;;2.40;;
77417;SDS011;66490;51.484;0.026;2023-01-04T02:19:20;16.88;;;2.72;;
77417;SDS011;66490;51.484;0.026;2023-01-04T02:27:43;13.85;;;2.85;;
77417;SDS011;66490;51.484;0.026;2023-01-04T02:35:29;14.67;;;2.87;;
77417;SDS011;66490;51.484;0.026;2023-01-04T02:38:06;14.95;;;3.53;;
77417;SDS011;66490;51.484;0.026;2023-01-04T02:46:21;18.13;;;2.28;;
77417;SDS011;66490;51.484;0.026;2023-01-04T02:48:51;14.23;;;2.38;;
77417;SDS011;66490;51.484;0.026;2023-01-04T02:51:36;11.55;;;2.25;;
77417;SDS011;66490;51.484;0.026;2023-01-04T02:54:07;12.40;;;2.20;;
77417;SDS011;66490;51.484;0.026;2023-01-04T02:56:40;16.40;;;2.55;;
77417;SDS011;66490;51.484;0.026;2023-01-04T03:05:55;14.23;;;2.97;;
77417;SDS011;66490;51.484;0.026;2023-01-04T03:11:17;14.77;;;2.97;;
77417;SDS011;66490;51.484;0.026;2023-01-04T03:16:39;12.45;;;3.00;;
77417;SDS011;66490;51.484;0.026;2023-01-04T03:19:13;16.75;;;2.80;;
77417;SDS011;66490;51.484;0.026;2023-01-04T03:22:02;13.27;;;2.00;;
77417;SDS011;66490;51.484;0.026;2023-01-04T03:24:29;13.80;;;2.63;;
77417;SDS011;66490;51.484;0.026;2023-01-04T03:27:16;14.63;;;1.98;;
77417;SDS011;66490;51.484;0.026;2023-01-04T03:30:09;9.88;;;1.40;;
77417;SDS011;66490;51.484;0.026;2023-01-04T03:32:58;12.40;;;2.42;;
77417;SDS011;66490;51.484;0.026;2023-01-04T03:35:54;15.73;;;2.20;;
77417;SDS011;66490;51.484;0.026;2023-01-04T03:38:47;12.80;;;2.10;;
77417;SDS011;66490;51.484;0.026;2023-01-04T03:41:36;8.65;;;1.98;;
77417;SDS011;66490;51.484;0.026;2023-01-04T03:47:33;10.95;;;2.03;;
77417;SDS011;66490;51.484;0.026;2023-01-04T03:50:37;11.17;;;1.33;;
77417;SDS011;66490;51.484;0.026;2023-01-04T03:53:06;8.15;;;2.17;;
77417;SDS011;66490;51.484;0.026;2023-01-04T03:55:34;9.55;;;1.77;;
77417;SDS011;66490;51.484;0.026;2023-01-04T03:58:02;9.80;;;1.88;;
77417;SDS011;66490;51.484;0.026;2023-01-04T04:00:28;9.65;;;1.90;;
77417;SDS011;66490;51.484;0.026;2023-01-04T04:02:56;9.47;;;1.53;;
77417;SDS011;66490;51.484;0.026;2023-01-04T04:05:33;7.53;;;1.52;;
77417;SDS011;66490;51.484;0.026;2023-01-04T04:08:20;12.43;;;1.73;;
77417;SDS011;66490;51.484;0.026;2023-01-04T04:10:55;9.20;;;1.88;;
77417;SDS011;66490;51.484;0.026;2023-01-04T04:13:22;9.25;;;1.33;;
77417;SDS011;66490;51.484;0.026;2023-01-04T04:15:50;6.73;;;1.30;;
77417;SDS011;66490;51.484;0.026;2023-01-04T04:18:17;6.80;;;1.92;;
77417;SDS011;66490;51.484;0.026;2023-01-04T04:20:43;4.37;;;1.10;;
77417;SDS011;66490;51.484;0.026;2023-01-04T04:23:09;8.30;;;1.60;;
77417;SDS011;66490;51.484;0.026;2023-01-04T04:25:34;9.10;;;2.10;;
77417;SDS011;66490;51.484;0.026;2023-01-04T04:28:00;6.27;;;2.00;;
77417;SDS011;66490;51.484;0.026;2023-01-04T04:30:25;6.67;;;1.63;;
77417;SDS011;66490;51.484;0.026;2023-01-04T04:32:54;8.77;;;2.47;;
77417;SDS011;66490;51.484;0.026;2023-01-04T04:35:20;6.70;;;1.15;;
77417;SDS011;66490;51.484;0.026;2023-01-04T04:37:45;6.33;;;1.80;;
77417;SDS011;66490;51.484;0.026;2023-01-04T04:40:11;6.77;;;1.43;;
77417;SDS011;66490;51.484;0.026;2023-01-04T04:42:57;5.75;;;1.92;;
77417;SDS011;66490;51.484;0.026;2023-01-04T04:45:23;6.53;;;1.90;;
77417;SDS011;66490;51.484;0.026;2023-01-04T04:47:49;6.57;;;1.33;;
77417;SDS011;66490;51.484;0.026;2023-01-04T04:50:14;9.95;;;2.95;;
77417;SDS011;66490;51.484;0.026;2023-01-04T04:52:40;7.10;;;2.13;;
77417;SDS011;66490;51.484;0.026;2023-01-04T04:55:06;9.37;;;2.27;;
77417;SDS011;66490;51.484;0.026;2023-01-04T04:57:32;9.57;;;2.50;;
77417;SDS011;66490;51.484;0.026;2023-01-04T04:59:57;6.90;;;2.70;;
77417;SDS011;66490;51.484;0.026;2023-01-04T05:02:23;10.05;;;2.10;;
77417;SDS011;66490;51.484;0.026;2023-01-04T05:04:48;7.93;;;2.27;;
77417;SDS011;66490;51.484;0.026;2023-01-04T05:07:14;10.23;;;2.10;;
77417;SDS011;66490;51.484;0.026;2023-01-04T05:09:39;10.47;;;1.70;;
77417;SDS011;66490;51.484;0.026;2023-01-04T05:12:05;8.73;;;1.53;;
77417;SDS011;66490;51.484;0.026;2023-01-04T05:14:49;7.90;;;1.55;;
77417;SDS011;66490;51.484;0.026;2023-01-04T05:17:15;9.73;;;1.98;;
77417;SDS011;66490;51.484;0.026;2023-01-04T05:19:41;9.65;;;2.22;;
77417;SDS011;66490;51.484;0.026;2023-01-04T05:22:07;7.50;;;1.00;;
77417;SDS011;66490;51.484;0.026;2023-01-04T05:24:33;11.98;;;1.55;;
77417;SDS011;66490;51.484;0.026;2023-01-04T05:26:58;8.33;;;1.73;;
77417;SDS011;66490;51.484;0.026;2023-01-04T05:29:24;8.47;;;1.20;;
77417;SDS011;66490;51.484;0.026;2023-01-04T05:32:08;9.13;;;1.58;;
77417;SDS011;66490;51.484;0.026;2023-01-04T05:34:33;7.43;;;1.80;;
77417;SDS011;66490;51.484;0.026;2023-01-04T05:36:59;9.32;;;1.65;;
77417;SDS011;66490;51.484;0.026;2023-01-04T05:39:25;9.13;;;2.38;;
77417;SDS011;66490;51.484;0.026;2023-01-04T05:41:51;7.17;;;1.67;;
77417;SDS011;66490;51.484;0.026;2023-01-04T05:44:35;7.47;;;1.70;;
77417;SDS011;66490;51.484;0.026;2023-01-04T05:47:01;8.70;;;1.50;;
77417;SDS011;66490;51.484;0.026;2023-01-04T05:49:27;7.82;;;1.00;;
77417;SDS011;66490;51.484;0.026;2023-01-04T05:51:52;7.00;;;1.50;;
77417;SDS011;66490;51.484;0.026;2023-01-04T05:54:18;8.43;;;1.50;;
77417;SDS011;66490;51.484;0.026;2023-01-04T05:56:44;11.63;;;2.63;;
77417;SDS011;66490;51.484;0.026;2023-01-04T05:59:10;14.43;;;3.10;;
77417;SDS011;66490;51.484;0.026;2023-01-04T06:01:35;9.63;;;2.57;;
77417;SDS011;66490;51.484;0.026;2023-01-04T06:04:01;16.30;;;2.37;;
77417;SDS011;66490;51.484;0.026;2023-01-04T06:06:27;9.53;;;1.90;;
77417;SDS011;66490;51.484;0.026;2023-01-04T06:08:52;13.05;;;2.88;;
77417;SDS011;66490;51.484;0.026;2023-01-04T06:11:18;10.73;;;2.20;;
77417;SDS011;66490;51.484;0.026;2023-01-04T06:13:44;11.47;;;2.17;;
77417;SDS011;66490;51.484;0.026;2023-01-04T06:16:09;14.60;;;1.98;;
77417;SDS011;66490;51.484;0.026;2023-01-04T06:18:35;12.83;;;2.03;;
77417;SDS011;66490;51.484;0.026;2023-01-04T06:21:00;11.00;;;2.53;;
77417;SDS011;66490;51.484;0.026;2023-01-04T06:23:27;10.98;;;1.65;;
77417;SDS011;66490;51.484;0.026;2023-01-04T06:25:52;12.23;;;2.73;;
77417;SDS011;66490;51.484;0.026;2023-01-04T06:28:18;11.17;;;2.20;;
77417;SDS011;66490;51.484;0.026;2023-01-04T06:30:46;11.52;;;2.78;;
77417;SDS011;66490;51.484;0.026;2023-01-04T06:33:12;13.83;;;1.63;;
77417;SDS011;66490;51.484;0.026;2023-01-04T06:35:38;12.05;;;2.20;;
77417;SDS011;66490;51.484;0.026;2023-01-04T06:38:03;10.00;;;1.83;;
77417;SDS011;66490;51.484;0.026;2023-01-04T06:40:29;9.85;;;1.98;;
77417;SDS011;66490;51.484;0.026;2023-01-04T06:42:55;10.47;;;1.60;;
77417;SDS011;66490;51.484;0.026;2023-01-04T06:45:20;6.80;;;1.35;;
77417;SDS011;66490;51.484;0.026;2023-01-04T06:47:46;10.23;;;2.20;;
77417;SDS011;66490;51.484;0.026;2023-01-04T06:50:15;11.90;;;2.05;;
77417;SDS011;66490;51.484;0.026;2023-01-04T06:52:41;10.37;;;2.03;;
77417;SDS011;66490;51.484;0.026;2023-01-04T06:55:07;10.55;;;2.10;;
77417;SDS011;66490;51.484;0.026;2023-01-04T06:57:36;9.27;;;2.38;;
77417;SDS011;66490;51.484;0.026;2023-01-04T07:00:02;11.43;;;2.20;;
77417;SDS011;66490;51.484;0.026;2023-01-04T07:02:29;9.68;;;1.95;;
77417;SDS011;66490;51.484;0.026;2023-01-04T07:04:54;14.47;;;1.67;;
77417;SDS011;66490;51.484;0.026;2023-01-04T07:07:20;10.57;;;2.10;;
77417;SDS011;66490;51.484;0.026;2023-01-04T07:09:45;11.05;;;1.98;;
77417;SDS011;66490;51.484;0.026;2023-01-04T07:12:11;10.73;;;2.33;;
77417;SDS011;66490;51.484;0.026;2023-01-04T07:14:37;12.90;;;2.55;;
77417;SDS011;66490;51.484;0.026;2023-01-04T07:17:03;7.27;;;1.90;;
77417;SDS011;66490;51.484;0.026;2023-01-04T07:19:31;10.47;;;1.57;;
77417;SDS011;66490;51.484;0.026;2023-01-04T07:21:57;9.73;;;1.60;;
77417;SDS011;66490;51.484;0.026;2023-01-04T07:24:23;8.85;;;1.95;;
77417;SDS011;66490;51.484;0.026;2023-01-04T07:26:49;8.07;;;1.50;;
77417;SDS011;66490;51.484;0.026;2023-01-04T07:29:15;12.13;;;1.63;;
77417;SDS011;66490;51.484;0.026;2023-01-04T07:31:45;9.68;;;1.67;;
77417;SDS011;66490;51.484;0.026;2023-01-04T07:34:12;9.73;;;1.83;;
77417;SDS011;66490;51.484;0.026;2023-01-04T07:36:38;10.13;;;2.20;;
77417;SDS011;66490;51.484;0.026;2023-01-04T07:39:04;9.90;;;1.65;;
77417;SDS011;66490;51.484;0.026;2023-01-04T07:41:31;10.02;;;1.30;;
77417;SDS011;66490;51.484;0.026;2023-01-04T07:43:56;7.43;;;1.30;;
77417;SDS011;66490;51.484;0.026;2023-01-04T07:46:26;9.27;;;1.55;;
77417;SDS011;66490;51.484;0.026;2023-01-04T07:48:52;8.25;;;1.20;;
77417;SDS011;66490;51.484;0.026;2023-01-04T07:51:17;5.80;;;1.40;;
77417;SDS011;66490;51.484;0.026;2023-01-04T07:53:44;6.20;;;1.05;;
77417;SDS011;66490;51.484;0.026;2023-01-04T07:56:10;8.77;;;1.38;;
77417;SDS011;66490;51.484;0.026;2023-01-04T07:58:35;6.63;;;0.70;;
77417;SDS011;66490;51.484;0.026;2023-01-04T08:03:33;7.60;;;1.20;;
77417;SDS011;66490;51.484;0.026;2023-01-04T08:06:03;9.80;;;2.03;;
77417;SDS011;66490;51.484;0.026;2023-01-04T08:08:32;10.98;;;1.70;;
77417;SDS011;66490;51.484;0.026;2023-01-04T08:11:05;9.27;;;1.20;;
77417;SDS011;66490;51.484;0.026;2023-01-04T08:13:32;9.55;;;1.88;;
77417;SDS011;66490;51.484;0.026;2023-01-04T08:15:58;9.50;;;1.00;;
77417;SDS011;66490;51.484;0.026;2023-01-04T08:18:23;10.32;;;1.00;;
77417;SDS011;66490;51.484;0.026;2023-01-04T08:20:49;10.37;;;1.17;;
77417;SDS011;66490;51.484;0.026;2023-01-04T08:23:15;8.55;;;1.08;;
77417;SDS011;66490;51.484;0.026;2023-01-04T08:25:41;10.23;;;1.10;;
77417;SDS011;66490;51.484;0.026;2023-01-04T08:28:06;14.02;;;1.55;;
77417;SDS011;66490;51.484;0.026;2023-01-04T08:30:32;8.73;;;1.63;;
77417;SDS011;66490;51.484;0.026;2023-01-04T08:32:58;5.55;;;1.27;;
77417;SDS011;66490;51.484;0.026;2023-01-04T08:35:24;10.27;;;1.57;;
77417;SDS011;66490;51.484;0.026;2023-01-04T08:37:50;6.40;;;1.48;;
77417;SDS011;66490;51.484;0.026;2023-01-04T08:40:16;5.97;;;1.40;;
77417;SDS011;66490;51.484;0.026;2023-01-04T08:42:42;7.30;;;1.37;;
77417;SDS011;66490;51.484;0.026;2023-01-04T08:45:07;9.63;;;1.10;;
77417;SDS011;66490;51.484;0.026;2023-01-04T08:47:34;7.20;;;1.17;;
77417;SDS011;66490;51.484;0.026;2023-01-04T08:50:02;11.95;;;1.38;;
77417;SDS011;66490;51.484;0.026;2023-01-04T08:52:28;10.13;;;1.13;;
77417;SDS011;66490;51.484;0.026;2023-01-04T08:54:53;7.30;;;1.77;;
77417;SDS011;66490;51.484;0.026;2023-01-04T08:57:19;8.20;;;1.48;;
77417;SDS011;66490;51.484;0.026;2023-01-04T08:59:45;8.17;;;1.00;;
77417;SDS011;66490;51.484;0.026;2023-01-04T09:04:50;11.27;;;1.25;;
77417;SDS011;66490;51.484;0.026;2023-01-04T09:07:17;5.60;;;0.98;;
77417;SDS011;66490;51.484;0.026;2023-01-04T09:09:43;12.90;;;2.07;;
77417;SDS011;66490;51.484;0.026;2023-01-04T09:12:09;7.30;;;1.50;;
77417;SDS011;66490;51.484;0.026;2023-01-04T09:14:38;6.45;;;1.13;;
77417;SDS011;66490;51.484;0.026;2023-01-04T09:17:04;11.52;;;1.55;;
77417;SDS011;66490;51.484;0.026;2023-01-04T09:19:30;8.75;;;1.15;;
77417;SDS011;66490;51.484;0.026;2023-01-04T09:21:55;7.33;;;1.30;;
77417;SDS011;66490;51.484;0.026;2023-01-04T09:24:21;9.20;;;1.30;;
77417;SDS011;66490;51.484;0.026;2023-01-04T09:26:47;8.55;;;1.10;;
77417;SDS011;66490;51.484;0.026;2023-01-04T09:29:13;8.07;;;1.70;;
77417;SDS011;66490;51.484;0.026;2023-01-04T09:31:38;10.48;;;2.67;;
77417;SDS011;66490;51.484;0.026;2023-01-04T09:34:04;10.90;;;2.17;;
77417;SDS011;66490;51.484;0.026;2023-01-04T09:36:37;8.93;;;1.30;;
77417;SDS011;66490;51.484;0.026;2023-01-04T09:39:03;10.23;;;2.42;;
77417;SDS011;66490;51.484;0.026;2023-01-04T09:41:31;7.63;;;1.90;;
77417;SDS011;66490;51.484;0.026;2023-01-04T09:44:26;11.50;;;1.83;;
77417;SDS011;66490;51.484;0.026;2023-01-04T09:46:50;10.15;;;1.60;;
77417;SDS011;66490;51.484;0.026;2023-01-04T09:49:24;9.68;;;2.20;;
77417;SDS011;66490;51.484;0.026;2023-01-04T09:55:18;9.30;;;1.58;;
77417;SDS011;66490;51.484;0.026;2023-01-04T09:57:48;12.23;;;1.60;;
77417;SDS011;66490;51.484;0.026;2023-01-04T10:00:22;10.85;;;2.00;;
77417;SDS011;66490;51.484;0.026;2023-01-04T10:02:55;10.00;;;1.80;;
77417;SDS011;66490;51.484;0.026;2023-01-04T10:05:28;10.25;;;1.50;;
77417;SDS011;66490;51.484;0.026;2023-01-04T10:07:55;15.30;;;2.28;;
77417;SDS011;66490;51.484;0.026;2023-01-04T10:18:55;11.70;;;2.00;;
77417;SDS011;66490;51.484;0.026;2023-01-04T10:21:30;13.02;;;2.20;;
77417;SDS011;66490;51.484;0.026;2023-01-04T10:24:25;12.50;;;2.05;;
77417;SDS011;66490;51.484;0.026;2023-01-04T10:27:20;11.95;;;1.55;;
77417;SDS011;66490;51.484;0.026;2023-01-04T10:32:53;12.60;;;1.83;;
77417;SDS011;66490;51.484;0.026;2023-01-04T10:35:27;9.35;;;1.90;;
77417;SDS011;66490;51.484;0.026;2023-01-04T10:37:58;9.45;;;2.00;;
77417;SDS011;66490;51.484;0.026;2023-01-04T10:40:26;10.82;;;2.28;;
77417;SDS011;66490;51.484;0.026;2023-01-04T10:48:40;13.38;;;1.70;;
77417;SDS011;66490;51.484;0.026;2023-01-04T10:51:17;12.98;;;2.33;;
77417;SDS011;66490;51.484;0.026;2023-01-04T10:56:28;12.50;;;2.97;;
77417;SDS011;66490;51.484;0.026;2023-01-04T11:02:03;21.60;;;2.92;;
77417;SDS011;66490;51.484;0.026;2023-01-04T11:04:44;13.50;;;2.03;;
77417;SDS011;66490;51.484;0.026;2023-01-04T11:07:18;15.18;;;2.88;;
77417;SDS011;66490;51.484;0.026;2023-01-04T11:09:56;14.23;;;2.28;;
77417;SDS011;66490;51.484;0.026;2023-01-04T11:12:27;13.20;;;2.07;;
77417;SDS011;66490;51.484;0.026;2023-01-04T11:14:54;15.23;;;1.60;;
77417;SDS011;66490;51.484;0.026;2023-01-04T11:17:20;15.13;;;1.90;;
77417;SDS011;66490;51.484;0.026;2023-01-04T11:19:48;12.80;;;2.30;;
77417;SDS011;66490;51.484;0.026;2023-01-04T11:22:16;15.27;;;2.67;;
77417;SDS011;66490;51.484;0.026;2023-01-04T11:24:47;11.25;;;1.73;;
77417;SDS011;66490;51.484;0.026;2023-01-04T11:27:19;11.93;;;2.35;;
77417;SDS011;66490;51.484;0.026;2023-01-04T11:29:53;13.00;;;1.67;;
77417;SDS011;66490;51.484;0.026;2023-01-04T11:35:14;17.92;;;2.65;;
77417;SDS011;66490;51.484;0.026;2023-01-04T11:37:40;15.10;;;2.23;;
77417;SDS011;66490;51.484;0.026;2023-01-04T11:40:10;14.63;;;2.00;;
77417;SDS011;66490;51.484;0.026;2023-01-04T11:42:36;16.40;;;3.08;;
77417;SDS011;66490;51.484;0.026;2023-01-04T11:45:02;12.83;;;2.93;;
77417;SDS011;66490;51.484;0.026;2023-01-04T11:47:28;16.02;;;2.50;;
77417;SDS011;66490;51.484;0.026;2023-01-04T11:49:54;18.70;;;1.88;;
77417;SDS011;66490;51.484;0.026;2023-01-04T11:54:51;15.70;;;2.80;;
77417;SDS011;66490;51.484;0.026;2023-01-04T11:57:17;14.13;;;2.80;;
77417;SDS011;66490;51.484;0.026;2023-01-04T11:59:44;15.60;;;2.57;;
77417;SDS011;66490;51.484;0.026;2023-01-04T12:02:23;13.73;;;2.00;;
77417;SDS011;66490;51.484;0.026;2023-01-04T12:04:51;11.63;;;2.47;;
77417;SDS011;66490;51.484;0.026;2023-01-04T12:07:24;17.30;;;2.45;;
77417;SDS011;66490;51.484;0.026;2023-01-04T12:09:57;16.25;;;2.45;;
77417;SDS011;66490;51.484;0.026;2023-01-04T12:12:26;11.33;;;2.43;;
77417;SDS011;66490;51.484;0.026;2023-01-04T12:14:54;13.85;;;1.88;;
77417;SDS011;66490;51.484;0.026;2023-01-04T12:17:25;14.30;;;1.98;;
77417;SDS011;66490;51.484;0.026;2023-01-04T12:19:58;14.18;;;2.38;;
77417;SDS011;66490;51.484;0.026;2023-01-04T12:22:32;14.95;;;2.58;;
77417;SDS011;66490;51.484;0.026;2023-01-04T12:25:01;16.50;;;2.27;;
77417;SDS011;66490;51.484;0.026;2023-01-04T12:27:29;19.20;;;2.75;;
77417;SDS011;66490;51.484;0.026;2023-01-04T12:29:57;12.10;;;2.22;;
77417;SDS011;66490;51.484;0.026;2023-01-04T12:34:49;16.27;;;2.58;;
77417;SDS011;66490;51.484;0.026;2023-01-04T12:45:42;16.10;;;2.97;;
77417;SDS011;66490;51.484;0.026;2023-01-04T12:51:21;18.30;;;2.40;;
77417;SDS011;66490;51.484;0.026;2023-01-04T12:54:02;20.52;;;2.53;;
77417;SDS011;66490;51.484;0.026;2023-01-04T13:02:42;15.80;;;2.00;;
77417;SDS011;66490;51.484;0.026;2023-01-04T13:20:59;16.75;;;3.40;;
77417;SDS011;66490;51.484;0.026;2023-01-04T13:23:34;16.88;;;2.78;;
77417;SDS011;66490;51.484;0.026;2023-01-04T13:29:03;15.17;;;2.43;;
77417;SDS011;66490;51.484;0.026;2023-01-04T13:31:30;18.17;;;2.25;;
77417;SDS011;66490;51.484;0.026;2023-01-04T13:33:56;18.33;;;2.60;;
77417;SDS011;66490;51.484;0.026;2023-01-04T13:36:21;18.43;;;2.53;;
77417;SDS011;66490;51.484;0.026;2023-01-04T13:38:47;19.80;;;3.10;;
77417;SDS011;66490;51.484;0.026;2023-01-04T13:41:19;21.80;;;2.87;;
77417;SDS011;66490;51.484;0.026;2023-01-04T13:46:24;17.73;;;2.92;;
77417;SDS011;66490;51.484;0.026;2023-01-04T13:48:52;21.10;;;3.38;;
77417;SDS011;66490;51.484;0.026;2023-01-04T13:54:00;20.63;;;3.53;;
77417;SDS011;66490;51.484;0.026;2023-01-04T13:56:28;13.63;;;2.83;;
77417;SDS011;66490;51.484;0.026;2023-01-04T13:58:55;18.85;;;3.95;;
77417;SDS011;66490;51.484;0.026;2023-01-04T14:03:58;21.83;;;3.58;;
77417;SDS011;66490;51.484;0.026;2023-01-04T14:17:15;19.30;;;3.47;;
77417;SDS011;66490;51.484;0.026;2023-01-04T14:19:44;17.47;;;2.70;;
77417;SDS011;66490;51.484;0.026;2023-01-04T14:22:23;18.95;;;2.08;;
77417;SDS011;66490;51.484;0.026;2023-01-04T14:28:17;11.93;;;2.90;;
77417;SDS011;66490;51.484;0.026;2023-01-04T14:33:23;21.87;;;2.80;;
77417;SDS011;66490;51.484;0.026;2023-01-04T14:36:27;15.35;;;2.75;;
77417;SDS011;66490;51.484;0.026;2023-01-04T14:38:59;13.65;;;2.55;;
77417;SDS011;66490;51.484;0.026;2023-01-04T14:44:16;16.23;;;3.30;;
77417;SDS011;66490;51.484;0.026;2023-01-04T14:46:48;18.53;;;3.40;;
77417;SDS011;66490;51.484;0.026;2023-01-04T14:49:17;20.67;;;3.03;;
77417;SDS011;66490;51.484;0.026;2023-01-04T14:51:45;18.20;;;3.42;;
77417;SDS011;66490;51.484;0.026;2023-01-04T14:54:13;17.33;;;2.78;;
77417;SDS011;66490;51.484;0.026;2023-01-04T14:56:40;19.90;;;3.10;;
77417;SDS011;66490;51.484;0.026;2023-01-04T14:59:08;16.50;;;2.53;;
77417;SDS011;66490;51.484;0.026;2023-01-04T15:01:38;19.92;;;2.60;;
77417;SDS011;66490;51.484;0.026;2023-01-04T15:04:04;24.33;;;3.22;;
77417;SDS011;66490;51.484;0.026;2023-01-04T15:06:30;20.73;;;2.78;;
77417;SDS011;66490;51.484;0.026;2023-01-04T15:08:56;19.02;;;2.80;;
77417;SDS011;66490;51.484;0.026;2023-01-04T15:11:22;21.83;;;3.77;;
77417;SDS011;66490;51.484;0.026;2023-01-04T15:13:47;17.92;;;3.22;;
77417;SDS011;66490;51.484;0.026;2023-01-04T15:16:14;22.80;;;3.00;;
77417;SDS011;66490;51.484;0.026;2023-01-04T15:18:42;17.08;;;2.25;;
77417;SDS011;66490;51.484;0.026;2023-01-04T15:21:09;26.40;;;3.85;;
77417;SDS011;66490;51.484;0.026;2023-01-04T15:23:38;15.30;;;3.03;;
77417;SDS011;66490;51.484;0.026;2023-01-04T15:26:05;14.52;;;2.80;;
77417;SDS011;66490;51.484;0.026;2023-01-04T15:28:32;20.75;;;2.75;;
77417;SDS011;66490;51.484;0.026;2023-01-04T15:30:57;17.33;;;2.37;;
77417;SDS011;66490;51.484;0.026;2023-01-04T15:33:24;17.63;;;2.20;;
77417;SDS011;66490;51.484;0.026;2023-01-04T15:36:01;17.20;;;2.67;;
77417;SDS011;66490;51.484;0.026;2023-01-04T15:38:33;11.80;;;2.38;;
77417;SDS011;66490;51.484;0.026;2023-01-04T15:41:00;20.98;;;3.08;;
77417;SDS011;66490;51.484;0.026;2023-01-04T15:43:35;13.05;;;2.17;;
77417;SDS011;66490;51.484;0.026;2023-01-04T15:46:05;18.07;;;2.50;;
77417;SDS011;66490;51.484;0.026;2023-01-04T15:48:33;21.10;;;2.92;;
77417;SDS011;66490;51.484;0.026;2023-01-04T15:51:03;25.65;;;4.25;;
77417;SDS011;66490;51.484;0.026;2023-01-04T15:53:32;18.50;;;2.20;;
77417;SDS011;66490;51.484;0.026;2023-01-04T15:56:05;13.10;;;2.85;;
77417;SDS011;66490;51.484;0.026;2023-01-04T15:58:33;14.93;;;3.33;;
77417;SDS011;66490;51.484;0.026;2023-01-04T16:01:06;19.23;;;2.97;;
77417;SDS011;66490;51.484;0.026;2023-01-04T16:03:34;18.08;;;2.85;;
77417;SDS011;66490;51.484;0.026;2023-01-04T16:06:10;18.23;;;2.83;;
77417;SDS011;66490;51.484;0.026;2023-01-04T16:08:38;17.07;;;3.07;;
77417;SDS011;66490;51.484;0.026;2023-01-04T16:11:10;18.67;;;2.63;;
77417;SDS011;66490;51.484;0.026;2023-01-04T16:13:40;21.52;;;3.35;;
77417;SDS011;66490;51.484;0.026;2023-01-04T16:16:07;22.20;;;3.35;;
77417;SDS011;66490;51.484;0.026;2023-01-04T16:18:34;24.20;;;4.50;;
77417;SDS011;66490;51.484;0.026;2023-01-04T16:21:00;28.30;;;4.10;;
77417;SDS011;66490;51.484;0.026;2023-01-04T16:23:28;16.13;;;3.22;;
77417;SDS011;66490;51.484;0.026;2023-01-04T16:26:09;21.60;;;4.13;;
77417;SDS011;66490;51.484;0.026;2023-01-04T16:28:42;22.08;;;3.15;;
77417;SDS011;66490;51.484;0.026;2023-01-04T16:31:08;18.88;;;3.95;;
77417;SDS011;66490;51.484;0.026;2023-01-04T16:33:33;24.33;;;4.33;;
77417;SDS011;66490;51.484;0.026;2023-01-04T16:36:09;16.95;;;3.55;;
77417;SDS011;66490;51.484;0.026;2023-01-04T16:38:37;13.93;;;3.50;;
77417;SDS011;66490;51.484;0.026;2023-01-04T16:41:04;19.37;;;3.70;;
77417;SDS011;66490;51.484;0.026;2023-01-04T16:43:41;17.55;;;2.97;;
77417;SDS011;66490;51.484;0.026;2023-01-04T16:48:40;26.63;;;3.80;;
77417;SDS011;66490;51.484;0.026;2023-01-04T16:51:11;20.20;;;4.13;;
77417;SDS011;66490;51.484;0.026;2023-01-04T16:53:37;20.05;;;3.10;;
77417;SDS011;66490;51.484;0.026;2023-01-04T16:56:08;20.63;;;3.75;;
77417;SDS011;66490;51.484;0.026;2023-01-04T16:58:38;17.90;;;2.63;;
77417;SDS011;66490;51.484;0.026;2023-01-04T17:01:16;18.42;;;2.92;;
77417;SDS011;66490;51.484;0.026;2023-01-04T17:03:50;19.13;;;3.17;;
77417;SDS011;66490;51.484;0.026;2023-01-04T17:06:19;17.40;;;3.13;;
77417;SDS011;66490;51.484;0.026;2023-01-04T17:08:51;17.55;;;2.92;;
77417;SDS011;66490;51.484;0.026;2023-01-04T17:11:34;18.67;;;3.23;;